createdAt,value
2019-05-01T00:00:21.050Z,16.50
2019-05-01T00:02:59.692Z,16.23
2019-05-01T00:05:35.935Z,16.60
2019-05-01T00:08:05.016Z,17.33
2019-05-01T00:10:34.188Z,16.90
2019-05-01T00:13:02.834Z,16.73
2019-05-01T00:15:33.409Z,17.00
2019-05-01T00:18:02.011Z,17.40
2019-05-01T00:20:30.520Z,17.00
2019-05-01T00:22:59.000Z,17.00
2019-05-01T00:25:27.480Z,18.10
2019-05-01T00:27:56.129Z,17.57
2019-05-01T00:30:29.937Z,17.67
2019-05-01T00:32:56.267Z,17.77
2019-05-01T00:35:24.766Z,18.70
2019-05-01T00:37:53.229Z,16.90
2019-05-01T00:40:21.791Z,16.83
2019-05-01T00:42:50.510Z,17.47
2019-05-01T00:45:19.148Z,17.27
2019-05-01T00:47:47.712Z,17.93
2019-05-01T00:50:16.274Z,19.80
2019-05-01T00:52:44.740Z,18.83
2019-05-01T00:55:31.503Z,18.33
2019-05-01T00:58:01.658Z,17.60
2019-05-01T01:00:42.524Z,19.53
2019-05-01T01:03:02.100Z,20.53
2019-05-01T01:05:30.561Z,19.00
2019-05-01T01:07:59.150Z,19.37
2019-05-01T01:10:27.707Z,19.63
2019-05-01T01:12:57.256Z,19.63
2019-05-01T01:15:25.820Z,20.07
2019-05-01T01:17:54.417Z,19.37
2019-05-01T01:20:22.964Z,19.53
2019-05-01T01:22:51.482Z,20.83
2019-05-01T01:25:19.988Z,20.70
2019-05-01T01:27:48.456Z,20.60
2019-05-01T01:30:17.932Z,19.73
2019-05-01T01:32:46.531Z,19.93
2019-05-01T01:35:15.117Z,20.43
2019-05-01T01:37:43.759Z,19.83
2019-05-01T01:40:12.826Z,20.80
2019-05-01T01:42:42.680Z,20.80
2019-05-01T01:45:18.397Z,20.30
2019-05-01T01:48:05.036Z,21.33
2019-05-01T01:50:33.940Z,21.37
2019-05-01T01:53:02.481Z,21.37
2019-05-01T01:55:31.138Z,21.53
2019-05-01T01:57:59.746Z,20.77
2019-05-01T02:00:29.881Z,22.07
2019-05-01T02:03:00.169Z,21.53
2019-05-01T02:05:30.422Z,20.27
2019-05-01T02:07:59.069Z,21.80
2019-05-01T02:10:27.851Z,21.20
2019-05-01T02:12:58.166Z,20.80
2019-05-01T02:15:27.101Z,21.30
2019-05-01T02:17:55.890Z,20.57
2019-05-01T02:20:24.688Z,20.37
2019-05-01T02:22:53.248Z,21.23
2019-05-01T02:25:22.500Z,22.97
2019-05-01T02:27:52.754Z,21.13
2019-05-01T02:30:22.864Z,21.47
2019-05-01T02:32:53.297Z,22.17
2019-05-01T02:35:25.189Z,21.77
2019-05-01T02:37:54.439Z,22.63
2019-05-01T02:40:37.956Z,22.90
2019-05-01T02:43:09.264Z,21.63
2019-05-01T02:45:39.262Z,21.17
2019-05-01T02:48:09.205Z,22.53
2019-05-01T02:50:40.183Z,22.37
2019-05-01T02:53:09.121Z,21.77
2019-05-01T02:55:39.872Z,22.03
2019-05-01T02:58:10.664Z,21.83
2019-05-01T03:00:39.882Z,22.10
2019-05-01T03:03:09.007Z,22.70
2019-05-01T03:05:37.811Z,21.80
2019-05-01T03:08:06.443Z,22.17
2019-05-01T03:10:35.515Z,21.93
2019-05-01T03:13:04.752Z,23.40
2019-05-01T03:15:35.502Z,21.77
2019-05-01T03:18:14.909Z,22.20
2019-05-01T03:20:54.308Z,23.33
2019-05-01T03:23:24.990Z,20.33
2019-05-01T03:25:54.344Z,21.93
2019-05-01T03:28:22.882Z,21.13
2019-05-01T03:30:51.601Z,22.00
2019-05-01T03:33:20.209Z,22.13
2019-05-01T03:35:48.867Z,22.23
2019-05-01T03:38:18.446Z,21.53
2019-05-01T03:40:47.634Z,22.00
2019-05-01T03:43:16.291Z,20.80
2019-05-01T03:45:44.992Z,21.80
2019-05-01T03:48:13.708Z,21.77
2019-05-01T03:50:46.169Z,21.83
2019-05-01T03:53:13.369Z,21.80
2019-05-01T03:55:42.100Z,22.53
2019-05-01T03:58:10.586Z,21.30
2019-05-01T04:00:40.871Z,21.23
2019-05-01T04:03:26.452Z,20.70
2019-05-01T04:05:55.616Z,20.50
2019-05-01T04:08:24.828Z,20.70
2019-05-01T04:10:54.839Z,20.77
2019-05-01T04:13:24.065Z,20.93
2019-05-01T04:15:54.047Z,21.43
2019-05-01T04:18:23.986Z,21.43
2019-05-01T04:20:52.755Z,21.07
2019-05-01T04:23:21.430Z,20.83
2019-05-01T04:25:50.939Z,21.07
2019-05-01T04:28:33.105Z,22.20
2019-05-01T04:31:09.701Z,20.47
2019-05-01T04:33:39.914Z,20.83
2019-05-01T04:36:13.307Z,20.97
2019-05-01T04:38:42.021Z,22.07
2019-05-01T04:41:10.670Z,20.23
2019-05-01T04:43:39.811Z,21.27
2019-05-01T04:46:08.624Z,21.43
2019-05-01T04:48:37.180Z,21.03
2019-05-01T04:51:05.754Z,20.43
2019-05-01T04:53:35.096Z,20.73
2019-05-01T04:56:04.045Z,20.27
2019-05-01T04:58:32.617Z,20.27
2019-05-01T05:01:01.730Z,20.03
2019-05-01T05:03:30.388Z,21.47
2019-05-01T05:05:59.670Z,20.73
2019-05-01T05:08:28.415Z,20.80
2019-05-01T05:10:58.522Z,21.67
2019-05-01T05:13:28.696Z,21.27
2019-05-01T05:16:08.990Z,21.60
2019-05-01T05:18:38.045Z,22.33
2019-05-01T05:21:06.673Z,23.07
2019-05-01T05:23:35.320Z,21.23
2019-05-01T05:26:04.304Z,21.67
2019-05-01T05:28:34.231Z,21.27
2019-05-01T05:31:03.853Z,21.37
2019-05-01T05:33:36.062Z,22.37
2019-05-01T05:36:05.174Z,22.77
2019-05-01T05:38:36.722Z,22.60
2019-05-01T05:41:06.988Z,23.60
2019-05-01T05:43:36.420Z,24.33
2019-05-01T05:46:06.032Z,25.07
2019-05-01T05:48:34.603Z,25.23
2019-05-01T05:51:15.919Z,27.03
2019-05-01T05:53:54.874Z,27.60
2019-05-01T05:56:28.092Z,28.43
2019-05-01T05:58:59.960Z,26.17
2019-05-01T06:01:31.726Z,25.97
2019-05-01T06:04:04.919Z,19.90
2019-05-01T06:06:37.172Z,25.63
2019-05-01T06:09:08.931Z,22.47
2019-05-01T06:11:51.698Z,19.37
2019-05-01T06:14:39.266Z,24.43
2019-05-01T06:17:09.802Z,19.73
2019-05-01T06:19:40.138Z,25.20
2019-05-01T06:22:11.694Z,24.90
2019-05-01T06:24:42.770Z,27.00
2019-05-01T06:27:13.746Z,24.97
2019-05-01T06:29:43.839Z,23.40
2019-05-01T06:32:12.438Z,23.30
2019-05-01T06:34:41.189Z,27.77
2019-05-01T06:37:09.670Z,20.83
2019-05-01T06:39:42.880Z,24.27
2019-05-01T06:42:15.050Z,26.87
2019-05-01T06:44:44.557Z,16.23
2019-05-01T06:47:21.154Z,25.03
2019-05-01T06:50:01.222Z,20.80
2019-05-01T06:52:30.751Z,19.83
2019-05-01T06:54:59.609Z,26.83
2019-05-01T06:57:29.730Z,26.00
2019-05-01T07:00:03.125Z,23.97
2019-05-01T07:02:34.960Z,26.30
2019-05-01T07:05:01.946Z,19.23
2019-05-01T07:07:32.441Z,26.60
2019-05-01T07:10:02.229Z,28.30
2019-05-01T07:12:32.351Z,30.33
2019-05-01T07:15:02.459Z,27.17
2019-05-01T07:17:31.067Z,25.97
2019-05-01T07:20:04.806Z,26.77
2019-05-01T07:22:37.070Z,24.03
2019-05-01T07:25:05.302Z,24.53
2019-05-01T07:27:34.009Z,24.60
2019-05-01T07:30:04.189Z,20.70
2019-05-01T07:32:36.384Z,24.50
2019-05-01T07:35:03.944Z,25.43
2019-05-01T07:37:32.728Z,26.07
2019-05-01T07:40:01.709Z,20.27
2019-05-01T07:42:31.963Z,23.73
2019-05-01T07:45:15.953Z,22.93
2019-05-01T07:47:55.748Z,24.73
2019-05-01T07:50:31.570Z,23.10
2019-05-01T07:52:55.313Z,19.33
2019-05-01T07:55:35.996Z,21.83
2019-05-01T07:58:10.340Z,25.40
2019-05-01T08:00:47.884Z,23.23
2019-05-01T08:03:16.498Z,25.00
2019-05-01T08:05:45.433Z,18.30
2019-05-01T08:08:15.256Z,22.57
2019-05-01T08:10:44.193Z,27.27
2019-05-01T08:13:12.742Z,21.73
2019-05-01T08:15:41.237Z,25.50
2019-05-01T08:18:14.081Z,25.07
2019-05-01T08:20:45.800Z,24.97
2019-05-01T08:23:14.489Z,22.63
2019-05-01T08:25:43.084Z,23.30
2019-05-01T08:28:13.328Z,23.57
2019-05-01T08:30:58.437Z,24.90
2019-05-01T08:33:28.610Z,24.60
2019-05-01T08:35:57.102Z,25.80
2019-05-01T08:38:25.617Z,23.67
2019-05-01T08:40:55.468Z,23.37
2019-05-01T08:43:24.470Z,24.30
2019-05-01T08:46:06.760Z,24.87
2019-05-01T08:48:37.719Z,24.30
2019-05-01T08:51:06.357Z,21.80
2019-05-01T08:53:34.917Z,23.07
2019-05-01T08:56:03.410Z,24.13
2019-05-01T08:58:31.897Z,25.83
2019-05-01T09:01:00.500Z,16.23
2019-05-01T09:03:29.058Z,25.13
2019-05-01T09:05:58.991Z,17.83
2019-05-01T09:08:32.099Z,14.73
2019-05-01T09:11:00.256Z,26.20
2019-05-01T09:13:28.207Z,26.00
2019-05-01T09:15:56.704Z,25.07
2019-05-01T09:18:25.365Z,25.37
2019-05-01T09:20:55.540Z,26.57
2019-05-01T09:23:24.109Z,27.80
2019-05-01T09:25:54.322Z,29.07
2019-05-01T09:28:24.644Z,22.83
2019-05-01T09:31:01.599Z,27.27
2019-05-01T09:33:26.254Z,20.40
2019-05-01T09:35:55.630Z,23.93
2019-05-01T09:38:24.317Z,28.97
2019-05-01T09:40:52.982Z,12.80
2019-05-01T09:43:21.765Z,24.60
2019-05-01T09:45:50.248Z,26.07
2019-05-01T09:48:18.976Z,15.27
2019-05-01T09:50:49.286Z,27.93
2019-05-01T09:53:19.564Z,30.77
2019-05-01T09:55:49.730Z,27.17
2019-05-01T09:58:18.196Z,23.05
2019-05-01T10:00:48.751Z,28.53
2019-05-01T10:03:18.170Z,28.63
2019-05-01T10:05:46.918Z,27.27
2019-05-01T10:08:15.388Z,29.03
2019-05-01T10:10:43.915Z,29.40
2019-05-01T10:13:12.393Z,29.17
2019-05-01T10:15:40.889Z,28.20
2019-05-01T10:18:09.371Z,29.97
2019-05-01T10:20:37.906Z,30.43
2019-05-01T10:23:07.870Z,30.27
2019-05-01T10:25:38.294Z,31.73
2019-05-01T10:28:12.752Z,20.27
2019-05-01T10:30:45.185Z,27.02
2019-05-01T10:33:21.373Z,30.60
2019-05-01T10:36:03.564Z,33.75
2019-05-01T10:38:32.223Z,31.27
2019-05-01T10:41:04.296Z,29.87
2019-05-01T10:43:31.289Z,32.90
2019-05-01T10:45:59.769Z,30.87
2019-05-01T10:48:28.374Z,30.40
2019-05-01T10:50:56.960Z,29.52
2019-05-01T10:53:25.488Z,32.90
2019-05-01T10:55:54.035Z,34.70
2019-05-01T10:58:22.605Z,23.90
2019-05-01T11:00:52.893Z,31.23
2019-05-01T11:03:21.468Z,32.50
2019-05-01T11:05:55.980Z,34.67
2019-05-01T11:08:20.312Z,32.55
2019-05-01T11:10:48.876Z,27.58
2019-05-01T11:13:17.411Z,29.33
2019-05-01T11:15:45.966Z,31.48
2019-05-01T11:18:14.543Z,30.07
2019-05-01T11:20:43.105Z,32.78
2019-05-01T11:23:11.695Z,30.45
2019-05-01T11:25:40.359Z,33.42
2019-05-01T11:28:08.902Z,30.97
2019-05-01T11:30:37.477Z,34.25
2019-05-01T11:33:07.671Z,24.57
2019-05-01T11:35:40.515Z,30.37
2019-05-01T11:38:10.667Z,28.73
2019-05-01T11:40:40.784Z,32.40
2019-05-01T11:43:09.285Z,30.88
2019-05-01T11:45:37.836Z,26.25
2019-05-01T11:48:06.464Z,26.27
2019-05-01T11:50:34.974Z,25.90
2019-05-01T11:53:03.657Z,32.10
2019-05-01T11:55:32.219Z,36.80
2019-05-01T11:58:00.782Z,25.17
2019-05-01T12:00:29.396Z,24.47
2019-05-01T12:02:57.893Z,31.73
2019-05-01T12:05:26.457Z,34.75
2019-05-01T12:07:55.078Z,28.90
2019-05-01T12:10:23.619Z,24.75
2019-05-01T12:12:52.276Z,25.60
2019-05-01T12:15:20.826Z,19.90
2019-05-01T12:17:50.642Z,27.07
2019-05-01T12:20:21.162Z,32.20
2019-05-01T12:22:51.494Z,30.05
2019-05-01T12:25:20.018Z,33.38
2019-05-01T12:27:48.693Z,20.25
2019-05-01T12:30:18.402Z,29.32
2019-05-01T12:32:46.895Z,30.25
2019-05-01T12:35:15.536Z,31.93
2019-05-01T12:37:44.263Z,33.30
2019-05-01T12:40:15.634Z,30.30
2019-05-01T12:42:44.325Z,31.25
2019-05-01T12:45:14.102Z,32.53
2019-05-01T12:47:44.348Z,34.27
2019-05-01T12:50:14.076Z,24.40
2019-05-01T12:52:46.991Z,23.65
2019-05-01T12:55:23.121Z,30.27
2019-05-01T12:57:51.781Z,33.45
2019-05-01T13:00:23.347Z,30.02
2019-05-01T13:02:51.867Z,30.48
2019-05-01T13:05:20.413Z,30.97
2019-05-01T13:07:48.922Z,22.17
2019-05-01T13:10:17.478Z,20.45
2019-05-01T13:12:45.978Z,31.52
2019-05-01T13:15:14.609Z,30.62
2019-05-01T13:17:43.158Z,26.07
2019-05-01T13:20:11.779Z,22.40
2019-05-01T13:22:40.284Z,29.57
2019-05-01T13:25:08.996Z,23.47
2019-05-01T13:27:46.233Z,31.55
2019-05-01T13:30:17.766Z,27.40
2019-05-01T13:32:47.940Z,31.40
2019-05-01T13:35:16.493Z,24.85
2019-05-01T13:37:45.038Z,31.25
2019-05-01T13:40:15.085Z,28.98
2019-05-01T13:42:43.707Z,32.48
2019-05-01T13:45:13.129Z,31.60
2019-05-01T13:47:41.696Z,33.15
2019-05-01T13:50:10.711Z,27.02
2019-05-01T13:52:39.184Z,32.67
2019-05-01T13:55:07.853Z,29.70
2019-05-01T13:57:36.369Z,34.65
2019-05-01T14:00:06.671Z,25.90
2019-05-01T14:02:35.204Z,25.08
2019-05-01T14:05:05.093Z,24.50
2019-05-01T14:07:33.680Z,32.13
2019-05-01T14:10:02.225Z,29.57
2019-05-01T14:12:30.710Z,33.92
2019-05-01T14:14:59.217Z,35.28
2019-05-01T14:17:27.825Z,44.10
2019-05-01T14:20:00.403Z,33.60
2019-05-01T14:22:36.545Z,31.47
2019-05-01T14:25:10.581Z,25.32
2019-05-01T14:27:39.072Z,30.40
2019-05-01T14:30:10.364Z,38.50
2019-05-01T14:32:38.946Z,39.10
2019-05-01T14:35:11.424Z,23.70
2019-05-01T14:37:39.978Z,35.07
2019-05-01T14:40:09.101Z,33.00
2019-05-01T14:42:37.829Z,31.25
2019-05-01T14:45:08.673Z,22.70
2019-05-01T14:47:37.155Z,30.57
2019-05-01T14:50:06.898Z,33.33
2019-05-01T14:52:35.557Z,29.57
2019-05-01T14:55:06.752Z,35.75
2019-05-01T14:57:35.456Z,30.23
2019-05-01T15:00:06.321Z,30.05
2019-05-01T15:02:34.859Z,22.65
2019-05-01T15:05:04.659Z,29.15
2019-05-01T15:07:43.334Z,35.33
2019-05-01T15:10:06.518Z,34.48
2019-05-01T15:12:35.101Z,36.73
2019-05-01T15:15:06.226Z,33.23
2019-05-01T15:17:42.290Z,32.10
2019-05-01T15:20:10.845Z,33.73
2019-05-01T15:22:39.329Z,37.17
2019-05-01T15:25:07.980Z,34.40
2019-05-01T15:27:36.465Z,42.17
2019-05-01T15:30:07.263Z,45.12
2019-05-01T15:32:35.813Z,34.48
2019-05-01T15:35:05.732Z,35.00
2019-05-01T15:37:35.811Z,44.53
2019-05-01T15:40:07.879Z,42.62
2019-05-01T15:42:40.740Z,41.68
2019-05-01T15:45:09.830Z,38.33
2019-05-01T15:47:38.497Z,45.12
2019-05-01T15:50:08.047Z,33.92
2019-05-01T15:52:36.629Z,45.03
2019-05-01T15:55:08.424Z,38.70
2019-05-01T15:57:37.112Z,36.73
2019-05-01T16:00:08.274Z,43.90
2019-05-01T16:02:36.982Z,42.00
2019-05-01T16:05:07.202Z,42.98
2019-05-01T16:07:35.705Z,44.55
2019-05-01T16:10:10.265Z,39.48
2019-05-01T16:12:40.575Z,46.98
2019-05-01T16:15:11.419Z,43.70
2019-05-01T16:17:39.992Z,43.98
2019-05-01T16:20:08.620Z,36.13
2019-05-01T16:22:37.170Z,42.97
2019-05-01T16:25:07.484Z,44.85
2019-05-01T16:27:36.047Z,43.78
2019-05-01T16:30:06.149Z,35.08
2019-05-01T16:32:34.700Z,43.80
2019-05-01T16:35:03.580Z,38.53
2019-05-01T16:37:32.218Z,41.83
2019-05-01T16:40:16.056Z,30.35
2019-05-01T16:42:44.602Z,29.98
2019-05-01T16:45:14.095Z,37.23
2019-05-01T16:47:42.681Z,45.70
2019-05-01T16:50:12.166Z,30.45
2019-05-01T16:52:40.787Z,39.20
2019-05-01T16:55:10.095Z,40.43
2019-05-01T16:57:38.643Z,32.00
2019-05-01T17:00:09.917Z,43.52
2019-05-01T17:02:52.450Z,32.17
2019-05-01T17:05:28.824Z,33.85
2019-05-01T17:08:15.398Z,37.63
2019-05-01T17:10:45.706Z,36.05
2019-05-01T17:13:14.242Z,31.65
2019-05-01T17:15:44.441Z,36.00
2019-05-01T17:18:14.072Z,42.13
2019-05-01T17:20:43.162Z,37.95
2019-05-01T17:23:11.815Z,43.05
2019-05-01T17:25:40.377Z,34.17
2019-05-01T17:28:09.497Z,43.23
2019-05-01T17:30:43.666Z,44.13
2019-05-01T17:33:20.125Z,31.07
2019-05-01T17:35:43.256Z,43.78
2019-05-01T17:38:12.036Z,40.48
2019-05-01T17:40:40.568Z,37.83
2019-05-01T17:43:13.319Z,32.03
2019-05-01T17:45:39.323Z,34.55
2019-05-01T17:48:08.175Z,43.58
2019-05-01T17:50:36.671Z,35.35
2019-05-01T17:53:05.324Z,44.63
2019-05-01T17:55:34.032Z,43.23
2019-05-01T17:58:02.517Z,38.33
2019-05-01T18:00:38.797Z,36.90
2019-05-01T18:03:09.303Z,43.68
2019-05-01T18:05:56.218Z,39.90
2019-05-01T18:08:25.912Z,35.80
2019-05-01T18:10:54.408Z,39.70
2019-05-01T18:13:23.691Z,35.12
2019-05-01T18:15:52.325Z,37.60
2019-05-01T18:18:20.909Z,39.98
2019-05-01T18:20:49.530Z,33.53
2019-05-01T18:23:22.360Z,41.28
2019-05-01T18:25:55.559Z,41.73
2019-05-01T18:28:34.622Z,40.98
2019-05-01T18:31:04.855Z,38.88
2019-05-01T18:33:33.380Z,41.05
2019-05-01T18:36:01.896Z,27.05
2019-05-01T18:38:32.431Z,38.40
2019-05-01T18:41:05.421Z,39.27
2019-05-01T18:43:34.021Z,39.00
2019-05-01T18:46:03.637Z,29.23
2019-05-01T18:48:32.300Z,38.83
2019-05-01T18:51:00.829Z,41.02
2019-05-01T18:53:29.456Z,37.55
2019-05-01T18:56:01.387Z,40.78
2019-05-01T18:58:28.356Z,37.35
2019-05-01T19:00:56.888Z,33.20
2019-05-01T19:03:25.410Z,36.33
2019-05-01T19:05:54.048Z,35.58
2019-05-01T19:08:22.589Z,37.03
2019-05-01T19:10:51.237Z,36.58
2019-05-01T19:13:19.845Z,35.85
2019-05-01T19:15:48.492Z,35.98
2019-05-01T19:18:17.065Z,36.53
2019-05-01T19:20:58.591Z,33.23
2019-05-01T19:23:16.019Z,30.70
2019-05-01T19:25:44.584Z,34.43
2019-05-01T19:28:13.136Z,34.23
2019-05-01T19:30:41.710Z,34.80
2019-05-01T19:33:10.186Z,37.05
2019-05-01T19:35:38.680Z,30.77
2019-05-01T19:38:07.733Z,32.15
2019-05-01T19:40:36.209Z,35.45
2019-05-01T19:43:04.974Z,33.25
2019-05-01T19:45:33.705Z,35.55
2019-05-01T19:48:02.330Z,32.23
2019-05-01T19:50:31.094Z,31.75
2019-05-01T19:52:59.600Z,34.00
2019-05-01T19:55:28.187Z,34.15
2019-05-01T19:57:56.784Z,30.77
2019-05-01T20:00:47.778Z,31.68
2019-05-01T20:03:16.369Z,34.15
2019-05-01T20:05:44.879Z,33.08
2019-05-01T20:08:13.547Z,32.90
2019-05-01T20:10:42.260Z,30.63
2019-05-01T20:13:12.267Z,31.35
2019-05-01T20:15:41.199Z,27.77
2019-05-01T20:18:09.904Z,28.32
2019-05-01T20:20:38.524Z,29.32
2019-05-01T20:23:07.085Z,28.52
2019-05-01T20:25:35.640Z,26.17
2019-05-01T20:28:04.373Z,27.67
2019-05-01T20:30:32.954Z,23.52
2019-05-01T20:33:02.167Z,22.10
2019-05-01T20:35:34.036Z,25.68
2019-05-01T20:38:01.297Z,26.30
2019-05-01T20:40:29.841Z,25.47
2019-05-01T20:43:01.120Z,24.80
2019-05-01T20:45:28.767Z,25.68
2019-05-01T20:47:57.307Z,26.68
2019-05-01T20:50:25.969Z,24.82
2019-05-01T20:52:54.459Z,28.32
2019-05-01T20:55:23.075Z,27.37
2019-05-01T20:57:51.583Z,28.20
2019-05-01T21:00:22.070Z,27.15
2019-05-01T21:02:50.614Z,28.87
2019-05-01T21:05:23.698Z,27.13
2019-05-01T21:08:12.254Z,27.77
2019-05-01T21:10:50.614Z,27.03
2019-05-01T21:13:17.734Z,28.55
2019-05-01T21:15:47.240Z,27.27
2019-05-01T21:18:16.136Z,27.50
2019-05-01T21:20:44.682Z,27.40
2019-05-01T21:23:14.340Z,28.77
2019-05-01T21:25:43.893Z,28.40
2019-05-01T21:28:14.169Z,28.77
2019-05-01T21:30:45.829Z,29.35
2019-05-01T21:33:13.926Z,31.90
2019-05-01T21:35:44.479Z,31.42
2019-05-01T21:38:13.056Z,32.63
2019-05-01T21:40:43.697Z,33.17
2019-05-01T21:43:13.623Z,32.90
2019-05-01T21:45:43.373Z,33.50
2019-05-01T21:48:13.405Z,34.18
2019-05-01T21:50:43.922Z,33.67
2019-05-01T21:53:12.835Z,32.95
2019-05-01T21:55:41.610Z,33.67
2019-05-01T21:58:10.269Z,35.77
2019-05-01T22:00:40.829Z,32.90
2019-05-01T22:03:09.854Z,37.00
2019-05-01T22:05:39.661Z,36.15
2019-05-01T22:08:08.827Z,37.17
2019-05-01T22:10:37.439Z,35.87
2019-05-01T22:13:06.680Z,36.13
2019-05-01T22:15:41.920Z,36.37
2019-05-01T22:18:11.679Z,37.23
2019-05-01T22:20:44.697Z,40.75
2019-05-01T22:23:21.994Z,40.88
2019-05-01T22:25:49.781Z,40.80
2019-05-01T22:28:25.915Z,42.77
2019-05-01T22:31:16.792Z,41.20
2019-05-01T22:33:45.910Z,42.80
2019-05-01T22:36:14.469Z,43.35
2019-05-01T22:38:43.222Z,43.37
2019-05-01T22:41:12.885Z,42.77
2019-05-01T22:43:41.524Z,43.07
2019-05-01T22:46:11.695Z,41.67
2019-05-01T22:48:40.315Z,44.95
2019-05-01T22:51:10.443Z,41.43
2019-05-01T22:53:38.992Z,43.93
2019-05-01T22:56:07.502Z,42.43
2019-05-01T22:58:35.977Z,44.57
2019-05-01T23:01:05.205Z,40.77
2019-05-01T23:03:41.112Z,44.33
2019-05-01T23:06:08.529Z,44.50
2019-05-01T23:08:37.061Z,46.33
2019-05-01T23:11:18.535Z,45.23
2019-05-01T23:13:35.893Z,45.07
2019-05-01T23:16:05.481Z,44.87
2019-05-01T23:18:34.213Z,45.53
2019-05-01T23:21:02.743Z,45.70
2019-05-01T23:23:31.219Z,46.07
2019-05-01T23:25:59.801Z,46.53
2019-05-01T23:28:28.345Z,45.07
2019-05-01T23:30:56.882Z,45.80
2019-05-01T23:33:25.386Z,46.27
2019-05-01T23:35:54.002Z,46.50
2019-05-01T23:38:22.551Z,46.20
2019-05-01T23:40:52.915Z,44.63
2019-05-01T23:43:23.005Z,44.80
2019-05-01T23:45:51.484Z,44.23
2019-05-01T23:48:20.059Z,44.97
2019-05-01T23:50:48.662Z,44.50
2019-05-01T23:53:17.169Z,43.40
2019-05-01T23:55:45.705Z,43.13
2019-05-01T23:58:14.650Z,45.27
